createdAt,value
2023-05-06T00:01:03.673Z,4.47
2023-05-06T00:03:32.552Z,8.43
2023-05-06T00:06:02.903Z,4.45
2023-05-06T00:08:32.617Z,4.63
2023-05-06T00:11:00.982Z,7.68
2023-05-06T00:13:29.707Z,5.55
2023-05-06T00:15:58.439Z,6.38
2023-05-06T00:18:27.111Z,7.07
2023-05-06T00:20:56.010Z,3.22
2023-05-06T00:23:24.689Z,4.55
2023-05-06T00:25:55.134Z,11.93
2023-05-06T00:28:23.802Z,5.10
2023-05-06T00:30:52.457Z,5.55
2023-05-06T00:33:21.214Z,5.10
2023-05-06T00:35:50.751Z,3.60
2023-05-06T00:38:19.574Z,5.13
2023-05-06T00:40:48.298Z,7.65
2023-05-06T00:43:18.133Z,7.68
2023-05-06T00:45:46.918Z,4.50
2023-05-06T00:48:17.296Z,5.82
2023-05-06T00:50:46.397Z,10.68
2023-05-06T00:53:15.073Z,10.02
2023-05-06T00:55:44.674Z,7.93
2023-05-06T00:58:13.968Z,4.43
2023-05-06T01:00:44.551Z,6.82
2023-05-06T01:03:13.495Z,7.28
2023-05-06T01:05:52.656Z,3.97
2023-05-06T01:08:28.790Z,5.40
2023-05-06T01:11:03.360Z,6.22
2023-05-06T01:13:39.998Z,8.27
2023-05-06T01:16:11.299Z,7.78
2023-05-06T01:18:40.968Z,7.78
2023-05-06T01:21:10.341Z,5.18
2023-05-06T01:23:58.057Z,6.78
2023-05-06T01:26:27.255Z,6.85
2023-05-06T01:28:57.082Z,4.18
2023-05-06T01:31:35.369Z,5.88
2023-05-06T01:34:16.238Z,4.93
2023-05-06T01:36:57.942Z,5.70
2023-05-06T01:39:30.991Z,5.40
2023-05-06T01:42:01.990Z,5.57
2023-05-06T01:44:35.023Z,5.20
2023-05-06T01:47:04.733Z,7.15
2023-05-06T01:49:33.867Z,4.85
2023-05-06T01:52:03.818Z,12.85
2023-05-06T01:54:33.817Z,7.43
2023-05-06T01:57:03.794Z,2.95
2023-05-06T01:59:32.505Z,4.30
2023-05-06T02:02:01.321Z,8.07
2023-05-06T02:04:29.790Z,5.38
2023-05-06T02:06:58.563Z,7.18
2023-05-06T02:09:27.238Z,6.75
2023-05-06T02:12:01.713Z,8.07
2023-05-06T02:14:30.470Z,4.15
2023-05-06T02:17:04.854Z,5.15
2023-05-06T02:19:33.612Z,5.82
2023-05-06T02:22:02.438Z,5.22
2023-05-06T02:24:31.207Z,4.25
2023-05-06T02:27:02.275Z,5.03
2023-05-06T02:29:31.566Z,5.63
2023-05-06T02:32:00.239Z,9.18
2023-05-06T02:34:28.690Z,5.22
2023-05-06T02:36:57.395Z,8.35
2023-05-06T02:39:26.066Z,3.28
2023-05-06T02:41:54.801Z,5.70
2023-05-06T02:44:24.617Z,4.60
2023-05-06T02:46:53.344Z,5.10
2023-05-06T02:49:22.063Z,3.60
2023-05-06T02:51:50.420Z,7.28
2023-05-06T02:54:19.125Z,5.18
2023-05-06T02:56:47.869Z,4.95
2023-05-06T02:59:17.374Z,14.77
2023-05-06T03:01:47.381Z,6.82
2023-05-06T03:04:16.271Z,3.97
2023-05-06T03:06:44.924Z,3.53
2023-05-06T03:09:13.381Z,7.28
2023-05-06T03:11:42.083Z,4.90
2023-05-06T03:14:10.996Z,6.18
2023-05-06T03:16:39.698Z,5.80
2023-05-06T03:19:10.210Z,3.65
2023-05-06T03:21:38.960Z,5.43
2023-05-06T03:24:08.132Z,7.40
2023-05-06T03:26:37.617Z,4.95
2023-05-06T03:29:06.872Z,3.90
2023-05-06T03:31:36.599Z,6.82
2023-05-06T03:34:05.325Z,3.97
2023-05-06T03:36:36.603Z,6.45
2023-05-06T03:39:05.298Z,7.18
2023-05-06T03:41:35.976Z,7.25
2023-05-06T03:44:04.860Z,8.45
2023-05-06T03:46:33.636Z,9.45
2023-05-06T03:49:02.844Z,10.27
2023-05-06T03:51:31.801Z,9.65
2023-05-06T03:54:01.726Z,7.95
2023-05-06T03:56:30.726Z,3.88
2023-05-06T03:59:00.460Z,4.55
2023-05-06T04:01:30.201Z,7.82
2023-05-06T04:03:58.955Z,5.47
2023-05-06T04:06:29.080Z,10.27
2023-05-06T04:08:57.921Z,5.55
2023-05-06T04:11:29.726Z,4.30
2023-05-06T04:13:59.606Z,4.80
2023-05-06T04:16:28.398Z,9.95
2023-05-06T04:18:57.466Z,6.82
2023-05-06T04:21:26.273Z,8.10
2023-05-06T04:26:36.651Z,7.88
2023-05-06T04:29:06.968Z,14.23
2023-05-06T04:31:40.856Z,7.88
2023-05-06T04:34:12.341Z,9.45
2023-05-06T04:36:41.909Z,5.35
2023-05-06T04:39:21.728Z,7.38
2023-05-06T04:41:52.617Z,5.05
2023-05-06T04:44:28.915Z,5.18
2023-05-06T04:46:57.726Z,7.80
2023-05-06T04:49:26.437Z,11.88
2023-05-06T04:51:57.992Z,11.15
2023-05-06T04:54:27.448Z,9.02
2023-05-06T04:56:57.244Z,8.70
2023-05-06T04:59:26.178Z,7.32
2023-05-06T05:01:55.441Z,7.03
2023-05-06T05:04:24.240Z,7.93
2023-05-06T05:06:53.380Z,11.05
2023-05-06T05:09:22.242Z,11.02
2023-05-06T05:11:51.694Z,7.32
2023-05-06T05:14:22.430Z,9.60
2023-05-06T05:16:51.734Z,9.13
2023-05-06T05:19:21.299Z,9.10
2023-05-06T05:21:50.221Z,13.52
2023-05-06T05:24:19.560Z,10.52
2023-05-06T05:26:48.268Z,8.75
2023-05-06T05:29:18.767Z,16.15
2023-05-06T05:31:50.341Z,12.40
2023-05-06T05:34:19.927Z,16.55
2023-05-06T05:36:48.985Z,16.30
2023-05-06T05:39:17.859Z,19.80
2023-05-06T05:41:48.569Z,14.98
2023-05-06T05:44:17.737Z,12.13
2023-05-06T05:46:46.917Z,16.13
2023-05-06T05:49:19.690Z,13.93
2023-05-06T05:51:50.278Z,22.05
2023-05-06T05:54:20.231Z,21.55
2023-05-06T05:56:50.411Z,16.27
2023-05-06T05:59:19.109Z,15.32
2023-05-06T06:01:50.045Z,20.35
2023-05-06T06:04:19.876Z,19.02
2023-05-06T06:06:48.671Z,13.05
2023-05-06T06:09:17.934Z,17.88
2023-05-06T06:11:47.275Z,14.57
2023-05-06T06:14:16.021Z,18.08
2023-05-06T06:16:44.964Z,12.55
2023-05-06T06:19:14.782Z,10.80
2023-05-06T06:21:45.589Z,12.65
2023-05-06T06:24:15.058Z,13.23
2023-05-06T06:26:43.737Z,16.25
2023-05-06T06:29:12.545Z,8.07
2023-05-06T06:31:41.228Z,20.65
2023-05-06T06:34:12.473Z,11.73
2023-05-06T06:36:45.030Z,12.13
2023-05-06T06:39:14.895Z,9.27
2023-05-06T06:41:43.652Z,11.05
2023-05-06T06:44:12.376Z,7.03
2023-05-06T06:46:41.604Z,11.60
2023-05-06T06:49:10.408Z,10.63
2023-05-06T06:51:39.080Z,7.88
2023-05-06T06:54:07.834Z,10.60
2023-05-06T06:56:37.569Z,12.45
2023-05-06T06:59:06.376Z,6.40
2023-05-06T07:01:35.209Z,10.02
2023-05-06T07:04:05.978Z,6.30
2023-05-06T07:06:36.342Z,7.78
2023-05-06T07:09:05.129Z,16.65
2023-05-06T07:11:33.831Z,7.45
2023-05-06T07:14:03.596Z,4.88
2023-05-06T07:16:32.374Z,5.07
2023-05-06T07:19:01.566Z,7.05
2023-05-06T07:21:32.228Z,7.93
2023-05-06T07:24:01.151Z,5.63
2023-05-06T07:26:29.598Z,5.85
2023-05-06T07:28:58.306Z,5.07
2023-05-06T07:31:28.101Z,6.47
2023-05-06T07:33:58.352Z,7.53
2023-05-06T07:36:28.675Z,6.75
2023-05-06T07:38:57.381Z,3.13
2023-05-06T07:41:26.175Z,4.60
2023-05-06T07:43:54.856Z,6.70
2023-05-06T07:46:23.822Z,3.63
2023-05-06T07:48:53.622Z,7.07
2023-05-06T07:51:22.579Z,3.72
2023-05-06T07:53:51.251Z,5.70
2023-05-06T07:56:19.991Z,4.00
2023-05-06T07:58:49.267Z,11.25
2023-05-06T08:01:17.994Z,5.07
2023-05-06T08:03:46.795Z,4.40
2023-05-06T08:06:16.642Z,4.30
2023-05-06T08:08:46.486Z,3.95
2023-05-06T08:11:16.110Z,5.22
2023-05-06T08:13:46.081Z,3.92
2023-05-06T08:16:14.663Z,2.00
2023-05-06T08:18:43.493Z,3.30
2023-05-06T08:21:12.224Z,1.75
2023-05-06T08:23:41.993Z,3.25
2023-05-06T08:26:11.013Z,3.20
2023-05-06T08:28:39.693Z,3.85
2023-05-06T08:31:08.037Z,2.63
2023-05-06T08:33:36.791Z,1.30
2023-05-06T08:36:05.737Z,2.08
2023-05-06T08:38:34.396Z,2.03
2023-05-06T08:41:10.036Z,2.20
2023-05-06T08:43:42.581Z,1.60
2023-05-06T08:46:11.907Z,5.45
2023-05-06T08:48:40.667Z,2.35
2023-05-06T08:51:10.254Z,2.83
2023-05-06T08:53:43.763Z,3.20
2023-05-06T08:56:14.673Z,1.63
2023-05-06T08:58:46.936Z,1.92
2023-05-06T09:01:16.484Z,2.72
2023-05-06T09:03:45.247Z,2.17
2023-05-06T09:06:13.938Z,2.72
2023-05-06T09:08:42.678Z,1.10
2023-05-06T09:11:26.392Z,1.95
2023-05-06T09:14:11.941Z,1.90
2023-05-06T09:16:42.759Z,1.20
2023-05-06T09:19:11.893Z,0.80
2023-05-06T09:21:43.951Z,1.92
2023-05-06T09:24:14.527Z,1.50
2023-05-06T09:26:46.156Z,1.00
2023-05-06T09:29:14.752Z,0.80
2023-05-06T09:31:45.434Z,3.25
2023-05-06T09:34:15.428Z,3.53
2023-05-06T09:36:44.354Z,1.10
2023-05-06T09:39:13.090Z,2.92
2023-05-06T09:41:43.522Z,1.40
2023-05-06T09:44:13.224Z,2.85
2023-05-06T09:46:41.984Z,1.00
2023-05-06T09:49:11.030Z,0.95
2023-05-06T09:51:41.462Z,1.67
2023-05-06T09:54:10.779Z,2.05
2023-05-06T09:56:39.924Z,2.67
2023-05-06T09:59:11.175Z,1.40
2023-05-06T10:01:41.242Z,2.67
2023-05-06T10:04:10.858Z,2.30
2023-05-06T10:06:41.925Z,2.10
2023-05-06T10:09:11.269Z,1.05
2023-05-06T10:11:40.800Z,1.70
2023-05-06T10:14:11.793Z,0.63
2023-05-06T10:16:41.526Z,1.17
2023-05-06T10:19:10.289Z,2.95
2023-05-06T10:21:46.249Z,2.75
2023-05-06T10:24:19.517Z,2.70
2023-05-06T10:26:48.209Z,5.68
2023-05-06T10:29:19.794Z,2.92
2023-05-06T10:31:58.139Z,3.90
2023-05-06T10:34:27.036Z,1.52
2023-05-06T10:36:59.240Z,1.42
2023-05-06T10:39:28.457Z,4.35
2023-05-06T10:41:57.681Z,1.52
2023-05-06T10:45:03.500Z,1.42
2023-05-06T10:48:09.637Z,3.60
2023-05-06T10:50:38.331Z,2.90
2023-05-06T10:53:06.738Z,4.70
2023-05-06T10:55:37.687Z,2.03
2023-05-06T10:58:16.343Z,2.03
2023-05-06T11:00:55.551Z,1.42
2023-05-06T11:03:25.246Z,0.60
2023-05-06T11:05:54.311Z,0.95
2023-05-06T11:08:25.026Z,2.85
2023-05-06T11:10:54.101Z,4.53
2023-05-06T11:13:26.282Z,1.83
2023-05-06T11:15:57.080Z,3.17
2023-05-06T11:18:45.018Z,2.85
2023-05-06T11:21:41.554Z,0.90
2023-05-06T11:24:15.250Z,1.48
2023-05-06T11:26:44.595Z,3.73
2023-05-06T11:29:13.361Z,2.03
2023-05-06T11:31:45.366Z,3.22
2023-05-06T11:34:22.188Z,2.65
2023-05-06T11:37:03.730Z,0.73
2023-05-06T11:39:39.752Z,1.05
2023-05-06T11:42:09.659Z,1.85
2023-05-06T11:44:40.056Z,2.20
2023-05-06T11:47:10.490Z,2.25
2023-05-06T11:49:41.606Z,2.03
2023-05-06T11:52:11.682Z,1.38
2023-05-06T11:54:42.074Z,2.85
2023-05-06T11:57:10.835Z,0.70
2023-05-06T11:59:41.249Z,1.75
2023-05-06T12:02:15.549Z,1.00
2023-05-06T12:04:46.284Z,2.00
2023-05-06T12:07:17.093Z,0.98
2023-05-06T12:09:49.459Z,2.25
2023-05-06T12:12:22.163Z,2.22
2023-05-06T12:14:53.296Z,0.60
2023-05-06T12:17:23.695Z,1.05
2023-05-06T12:19:52.186Z,1.25
2023-05-06T12:22:22.681Z,1.50
2023-05-06T12:24:51.528Z,1.17
2023-05-06T12:27:33.463Z,1.70
2023-05-06T12:30:04.529Z,1.55
2023-05-06T12:32:34.711Z,2.08
2023-05-06T12:35:07.346Z,0.77
2023-05-06T12:37:36.205Z,1.73
2023-05-06T12:40:17.090Z,1.15
2023-05-06T12:42:47.743Z,1.30
2023-05-06T12:45:16.530Z,0.50
2023-05-06T12:47:55.954Z,1.85
2023-05-06T12:50:36.368Z,1.27
2023-05-06T12:53:05.681Z,0.63
2023-05-06T12:55:34.776Z,3.88
2023-05-06T12:58:03.957Z,1.00
2023-05-06T13:00:32.639Z,0.57
2023-05-06T13:03:02.470Z,1.08
2023-05-06T13:05:31.409Z,0.60
2023-05-06T13:08:00.061Z,4.38
2023-05-06T13:10:28.884Z,0.80
2023-05-06T13:12:57.629Z,1.88
2023-05-06T13:15:27.015Z,1.45
2023-05-06T13:17:57.130Z,1.20
2023-05-06T13:20:27.013Z,2.05
2023-05-06T13:22:55.530Z,1.85
2023-05-06T13:25:24.264Z,2.88
2023-05-06T13:27:54.019Z,1.40
2023-05-06T13:30:22.487Z,0.82
2023-05-06T13:32:51.238Z,7.22
2023-05-06T13:35:19.993Z,3.45
2023-05-06T13:37:49.688Z,5.30
2023-05-06T13:40:18.283Z,3.08
2023-05-06T13:42:46.641Z,0.82
2023-05-06T13:45:15.669Z,0.73
2023-05-06T13:47:44.379Z,1.20
2023-05-06T13:50:13.198Z,1.08
2023-05-06T13:52:41.935Z,18.38
2023-05-06T13:55:12.106Z,1.45
2023-05-06T13:57:40.800Z,1.75
2023-05-06T14:00:11.431Z,0.50
2023-05-06T14:02:40.559Z,2.45
2023-05-06T14:05:09.800Z,2.80
2023-05-06T14:07:40.456Z,0.90
2023-05-06T14:10:11.922Z,3.08
2023-05-06T14:12:40.967Z,3.67
2023-05-06T14:15:10.980Z,2.63
2023-05-06T14:17:39.957Z,1.60
2023-05-06T14:20:09.973Z,4.38
2023-05-06T14:22:41.418Z,3.40
2023-05-06T14:25:12.137Z,1.42
2023-05-06T14:27:41.267Z,0.80
2023-05-06T14:30:10.682Z,2.42
2023-05-06T14:32:39.513Z,1.50
2023-05-06T14:35:10.172Z,1.85
2023-05-06T14:37:39.045Z,0.82
2023-05-06T14:40:10.008Z,0.98
2023-05-06T14:42:39.885Z,5.03
2023-05-06T14:45:10.022Z,1.67
2023-05-06T14:47:39.681Z,1.20
2023-05-06T14:50:10.600Z,0.63
2023-05-06T14:52:40.204Z,0.38
2023-05-06T14:55:11.090Z,0.40
2023-05-06T14:57:41.147Z,1.08
2023-05-06T15:00:14.656Z,0.93
2023-05-06T15:02:43.247Z,2.93
2023-05-06T15:05:13.056Z,0.73
2023-05-06T15:07:42.494Z,2.05
2023-05-06T15:10:11.660Z,1.48
2023-05-06T15:12:41.486Z,2.83
2023-05-06T15:15:11.110Z,6.10
2023-05-06T15:17:41.646Z,1.30
2023-05-06T15:20:11.544Z,2.10
2023-05-06T15:22:40.265Z,1.58
2023-05-06T15:25:16.677Z,3.60
2023-05-06T15:27:52.470Z,0.57
2023-05-06T15:30:21.374Z,1.02
2023-05-06T15:32:50.067Z,1.15
2023-05-06T15:35:18.789Z,2.65
2023-05-06T15:37:47.424Z,2.10
2023-05-06T15:40:15.853Z,1.10
2023-05-06T15:42:44.750Z,1.35
2023-05-06T15:45:14.703Z,0.50
2023-05-06T15:47:43.368Z,0.95
2023-05-06T15:50:21.310Z,4.53
2023-05-06T15:53:01.049Z,0.95
2023-05-06T15:55:30.004Z,1.65
2023-05-06T15:58:00.776Z,0.50
2023-05-06T16:00:30.954Z,0.50
2023-05-06T16:02:59.723Z,0.65
2023-05-06T16:05:28.486Z,0.90
2023-05-06T16:07:57.263Z,1.42
2023-05-06T16:10:25.961Z,5.40
2023-05-06T16:12:54.755Z,5.05
2023-05-06T16:15:23.586Z,0.57
2023-05-06T16:17:53.340Z,2.03
2023-05-06T16:20:22.151Z,0.35
2023-05-06T16:22:51.379Z,2.25
2023-05-06T16:25:20.118Z,2.15
2023-05-06T16:27:49.345Z,2.40
2023-05-06T16:30:18.403Z,4.82
2023-05-06T16:32:47.130Z,6.85
2023-05-06T16:35:18.297Z,1.75
2023-05-06T16:37:47.001Z,0.88
2023-05-06T16:40:20.849Z,2.95
2023-05-06T16:42:50.076Z,1.13
2023-05-06T16:45:19.178Z,2.05
2023-05-06T16:47:48.293Z,2.17
2023-05-06T16:50:18.340Z,2.33
2023-05-06T16:52:47.631Z,1.48
2023-05-06T16:55:16.221Z,4.50
2023-05-06T16:57:44.564Z,3.95
2023-05-06T17:00:15.414Z,3.60
2023-05-06T17:02:44.270Z,3.10
2023-05-06T17:05:13.009Z,1.77
2023-05-06T17:07:42.825Z,0.80
2023-05-06T17:10:12.211Z,7.55
2023-05-06T17:12:41.669Z,1.92
2023-05-06T17:15:11.247Z,4.07
2023-05-06T17:17:40.786Z,5.55
2023-05-06T17:20:10.782Z,1.33
2023-05-06T17:22:39.377Z,8.48
2023-05-06T17:25:10.521Z,2.67
2023-05-06T17:27:38.950Z,3.08
2023-05-06T17:30:10.520Z,1.55
2023-05-06T17:32:39.391Z,2.88
2023-05-06T17:35:08.865Z,2.15
2023-05-06T17:37:37.813Z,8.45
2023-05-06T17:40:09.537Z,5.55
2023-05-06T17:42:38.280Z,0.90
2023-05-06T17:45:08.123Z,0.88
2023-05-06T17:47:37.001Z,2.13
2023-05-06T17:50:06.497Z,5.28
2023-05-06T17:52:35.298Z,2.45
2023-05-06T17:55:18.974Z,1.45
2023-05-06T17:57:49.178Z,1.48
2023-05-06T18:00:18.497Z,1.23
2023-05-06T18:02:47.202Z,5.88
2023-05-06T18:05:16.096Z,2.92
2023-05-06T18:07:44.955Z,0.70
2023-05-06T18:10:14.148Z,1.00
2023-05-06T18:12:45.234Z,0.98
2023-05-06T18:15:15.534Z,6.60
2023-05-06T18:17:44.338Z,1.42
2023-05-06T18:20:14.120Z,4.55
2023-05-06T18:22:43.078Z,2.63
2023-05-06T18:25:12.070Z,3.67
2023-05-06T18:27:40.937Z,3.00
2023-05-06T18:30:10.100Z,1.30
2023-05-06T18:32:39.868Z,4.45
2023-05-06T18:35:10.982Z,6.25
2023-05-06T18:37:40.058Z,15.30
2023-05-06T18:40:10.009Z,2.38
2023-05-06T18:42:38.742Z,10.43
2023-05-06T18:45:09.042Z,2.70
2023-05-06T18:47:40.190Z,2.33
2023-05-06T18:50:10.175Z,3.13
2023-05-06T18:52:38.829Z,1.48
2023-05-06T18:55:09.008Z,2.90
2023-05-06T18:57:37.921Z,6.22
2023-05-06T19:00:08.306Z,2.38
2023-05-06T19:02:37.885Z,1.00
2023-05-06T19:05:09.445Z,4.60
2023-05-06T19:07:38.259Z,1.77
2023-05-06T19:10:08.353Z,1.67
2023-05-06T19:12:36.764Z,5.68
2023-05-06T19:15:06.252Z,0.85
2023-05-06T19:17:35.030Z,2.88
2023-05-06T19:20:05.144Z,1.35
2023-05-06T19:22:34.916Z,2.45
2023-05-06T19:25:03.498Z,24.08
2023-05-06T19:27:32.278Z,3.33
2023-05-06T19:30:00.927Z,2.15
2023-05-06T19:32:29.683Z,0.88
2023-05-06T19:34:59.038Z,1.42
2023-05-06T19:37:30.317Z,2.20
2023-05-06T19:40:00.275Z,5.35
2023-05-06T19:42:29.055Z,9.50
2023-05-06T19:44:57.850Z,4.50
2023-05-06T19:47:27.300Z,1.33
2023-05-06T19:49:56.032Z,1.02
2023-05-06T19:52:25.280Z,11.88
2023-05-06T19:54:54.439Z,0.85
2023-05-06T19:57:24.226Z,2.60
2023-05-06T19:59:52.582Z,1.45
2023-05-06T20:02:21.431Z,0.75
2023-05-06T20:04:50.644Z,3.03
2023-05-06T20:07:20.982Z,2.20
2023-05-06T20:09:55.099Z,1.20
2023-05-06T20:12:27.301Z,2.35
2023-05-06T20:14:56.262Z,1.00
2023-05-06T20:17:24.829Z,1.85
2023-05-06T20:19:57.186Z,2.28
2023-05-06T20:22:25.992Z,5.40
2023-05-06T20:25:07.972Z,1.70
2023-05-06T20:27:37.985Z,0.73
2023-05-06T20:30:09.611Z,3.03
2023-05-06T20:32:38.618Z,3.58
2023-05-06T20:35:08.840Z,2.97
2023-05-06T20:37:38.144Z,3.25
2023-05-06T20:40:09.634Z,2.90
2023-05-06T20:42:39.720Z,1.90
2023-05-06T20:45:09.850Z,0.88
2023-05-06T20:47:38.817Z,2.92
2023-05-06T20:50:08.185Z,1.48
2023-05-06T20:52:40.902Z,1.58
2023-05-06T20:55:12.949Z,2.30
2023-05-06T20:57:46.259Z,0.90
2023-05-06T21:00:15.578Z,2.45
2023-05-06T21:02:44.107Z,0.95
2023-05-06T21:05:13.158Z,1.17
2023-05-06T21:07:41.910Z,5.70
2023-05-06T21:10:11.851Z,6.90
2023-05-06T21:12:40.379Z,9.80
2023-05-06T21:15:11.764Z,6.50
2023-05-06T21:17:40.851Z,1.48
2023-05-06T21:20:10.740Z,1.38
2023-05-06T21:22:39.469Z,2.50
2023-05-06T21:25:09.942Z,3.03
2023-05-06T21:27:38.862Z,3.42
2023-05-06T21:30:10.655Z,2.83
2023-05-06T21:32:39.399Z,2.50
2023-05-06T21:35:08.952Z,0.80
2023-05-06T21:37:37.807Z,4.55
2023-05-06T21:40:07.564Z,0.90
2023-05-06T21:42:35.931Z,1.48
2023-05-06T21:45:04.972Z,4.30
2023-05-06T21:47:34.791Z,5.40
2023-05-06T21:50:03.391Z,11.30
2023-05-06T21:52:32.525Z,5.93
2023-05-06T21:55:01.020Z,1.05
2023-05-06T21:57:29.899Z,2.75
2023-05-06T21:59:58.682Z,0.98
2023-05-06T22:02:27.488Z,5.20
2023-05-06T22:04:57.260Z,2.50
2023-05-06T22:07:26.007Z,2.20
2023-05-06T22:09:54.360Z,1.80
2023-05-06T22:12:23.014Z,1.98
2023-05-06T22:14:51.707Z,1.98
2023-05-06T22:17:20.231Z,1.60
2023-05-06T22:19:48.943Z,3.47
2023-05-06T22:22:19.352Z,3.55
2023-05-06T22:24:48.593Z,3.60
2023-05-06T22:27:17.289Z,4.20
2023-05-06T22:29:45.967Z,5.78
2023-05-06T22:32:14.641Z,1.50
2023-05-06T22:34:43.278Z,2.97
2023-05-06T22:37:12.854Z,2.75
2023-05-06T22:39:42.650Z,3.40
2023-05-06T22:42:11.139Z,1.75
2023-05-06T22:44:39.800Z,2.15
2023-05-06T22:47:08.138Z,5.28
2023-05-06T22:49:36.873Z,3.38
2023-05-06T22:52:05.820Z,2.75
2023-05-06T22:54:34.802Z,2.00
2023-05-06T22:57:04.896Z,13.10
2023-05-06T22:59:33.627Z,2.17
2023-05-06T23:02:02.568Z,2.42
2023-05-06T23:04:31.265Z,1.92
2023-05-06T23:06:59.948Z,1.83
2023-05-06T23:09:28.776Z,4.43
2023-05-06T23:11:57.449Z,1.70
2023-05-06T23:14:27.165Z,1.73
2023-05-06T23:16:55.873Z,3.25
2023-05-06T23:19:24.587Z,1.92
2023-05-06T23:21:53.323Z,1.98
2023-05-06T23:24:21.992Z,1.60
2023-05-06T23:26:51.897Z,11.10
2023-05-06T23:29:20.590Z,6.55
2023-05-06T23:31:50.875Z,4.97
2023-05-06T23:34:19.636Z,1.60
2023-05-06T23:36:48.329Z,4.68
2023-05-06T23:39:17.494Z,2.28
2023-05-06T23:41:46.219Z,5.80
2023-05-06T23:44:15.019Z,2.70
2023-05-06T23:46:43.759Z,2.22
2023-05-06T23:49:13.599Z,2.33
2023-05-06T23:51:42.266Z,2.75
2023-05-06T23:54:10.931Z,1.73
2023-05-06T23:56:40.253Z,1.50
2023-05-06T23:59:09.684Z,2.35
